Time;durP1;ratioP1;P1;durP2;ratioP2;P2;SDS_P1;SDS_P2;PMS_P1;PMS_P2;Temp;Humidity;BMP_temperature;BMP_pressure;BME280_temperature;BME280_humidity;BME280_pressure;Samples;Min_cycle;Max_cycle;Signal;HPM_P1;HPM_P2
2022/07/25 00:01:28;;;;;;;7.25;6.55;;;22.20;65.10;;;;;;5053866;28;20029;-63
2022/07/25 00:03:54;;;;;;;7.90;7.10;;;22.20;65.00;;;;;;5053664;28;20096;-64
2022/07/25 00:06:19;;;;;;;9.40;7.20;;;22.20;65.20;;;;;;5052048;28;20044;-63
2022/07/25 00:08:45;;;;;;;8.48;7.38;;;22.20;65.20;;;;;;5051072;28;20063;-64
2022/07/25 00:11:11;;;;;;;8.70;7.40;;;22.20;65.50;;;;;;5052447;28;20067;-64
2022/07/25 00:13:36;;;;;;;7.78;7.07;;;22.20;65.60;;;;;;5053321;28;20040;-63
2022/07/25 00:16:02;;;;;;;8.25;7.40;;;22.20;65.70;;;;;;5046494;28;20116;-63
2022/07/25 00:18:27;;;;;;;8.57;7.30;;;22.10;65.80;;;;;;5051924;28;20033;-63
2022/07/25 00:20:53;;;;;;;9.20;8.25;;;22.10;66.10;;;;;;5052934;28;20307;-64
2022/07/25 00:23:19;;;;;;;8.70;7.32;;;22.00;66.00;;;;;;5054009;28;20044;-63
2022/07/25 00:25:44;;;;;;;8.38;7.68;;;22.00;66.20;;;;;;5052738;28;20045;-63
2022/07/25 00:28:10;;;;;;;10.73;7.72;;;21.90;66.30;;;;;;5052583;28;20124;-65
2022/07/25 00:30:35;;;;;;;8.23;7.30;;;21.80;66.60;;;;;;5052281;28;20104;-63
2022/07/25 00:33:01;;;;;;;8.50;7.63;;;21.70;66.80;;;;;;5050810;28;20044;-65
2022/07/25 00:35:27;;;;;;;10.20;8.10;;;21.70;67.10;;;;;;5051266;28;21216;-63
2022/07/25 00:37:52;;;;;;;9.25;7.72;;;21.70;67.10;;;;;;5052127;28;20036;-62
2022/07/25 00:40:18;;;;;;;8.77;7.57;;;21.60;67.10;;;;;;5053519;28;20044;-62
2022/07/25 00:42:44;;;;;;;8.20;7.40;;;21.60;67.40;;;;;;5053223;28;20421;-62
2022/07/25 00:45:10;;;;;;;8.63;7.82;;;21.50;67.60;;;;;;5052385;28;20090;-64
2022/07/25 00:47:35;;;;;;;8.85;7.90;;;21.50;67.60;;;;;;5052647;28;20067;-63
2022/07/25 00:50:01;;;;;;;8.27;7.43;;;21.40;67.30;;;;;;5052577;28;20095;-63
2022/07/25 00:52:26;;;;;;;8.77;7.93;;;21.40;67.50;;;;;;5051673;28;20122;-64
2022/07/25 00:54:52;;;;;;;10.18;7.82;;;21.40;67.70;;;;;;5052233;28;20025;-62
2022/07/25 00:57:18;;;;;;;8.77;7.88;;;21.30;67.60;;;;;;5055680;28;20489;-62
2022/07/25 00:59:44;;;;;;;8.23;7.45;;;21.30;67.70;;;;;;5053491;28;21062;-64
2022/07/25 01:02:09;;;;;;;10.57;7.18;;;21.20;67.90;;;;;;5060882;28;20045;-63
2022/07/25 01:04:35;;;;;;;11.02;8.02;;;21.20;67.90;;;;;;5058551;28;20037;-65
2022/07/25 01:07:01;;;;;;;8.63;7.82;;;21.20;68.10;;;;;;5051500;28;20536;-63
2022/07/25 01:09:27;;;;;;;8.45;7.25;;;21.00;68.10;;;;;;5052384;28;20051;-62
2022/07/25 01:11:52;;;;;;;8.50;7.78;;;21.00;68.30;;;;;;5053810;28;20495;-61
2022/07/25 01:14:18;;;;;;;11.32;8.23;;;21.00;68.70;;;;;;5054066;28;20827;-64
2022/07/25 01:16:44;;;;;;;8.70;7.80;;;21.00;68.60;;;;;;5055040;28;20040;-62
2022/07/25 01:19:09;;;;;;;8.15;7.18;;;20.90;68.60;;;;;;5056478;28;20033;-63
2022/07/25 01:21:38;;;;;;;8.65;7.85;;;20.90;68.80;;;;;;5055820;28;20048;-62
2022/07/25 01:24:05;;;;;;;8.63;7.82;;;20.90;69.30;;;;;;5052277;28;20029;-64
2022/07/25 01:26:30;;;;;;;9.45;8.20;;;20.80;69.30;;;;;;5051554;28;20067;-62
2022/07/25 01:28:56;;;;;;;8.77;7.95;;;20.80;69.10;;;;;;5056561;28;20129;-63
2022/07/25 01:31:22;;;;;;;9.13;8.20;;;20.80;69.10;;;;;;5056141;28;20081;-63
2022/07/25 01:33:48;;;;;;;9.32;8.13;;;20.80;69.20;;;;;;5055899;28;20032;-62
2022/07/25 01:36:13;;;;;;;8.80;7.90;;;20.70;69.40;;;;;;5055165;28;20051;-62
2022/07/25 01:38:39;;;;;;;8.55;7.72;;;20.60;69.50;;;;;;5053832;28;20029;-63
2022/07/25 01:41:05;;;;;;;8.85;8.02;;;20.60;69.40;;;;;;5054900;28;20040;-63
2022/07/25 01:43:31;;;;;;;10.32;8.40;;;20.60;69.50;;;;;;5055357;28;20412;-63
2022/07/25 01:45:56;;;;;;;11.90;8.70;;;20.50;69.50;;;;;;5055008;28;20029;-62
2022/07/25 01:48:22;;;;;;;12.43;7.95;;;20.50;69.70;;;;;;5053481;28;20045;-63
2022/07/25 01:50:48;;;;;;;10.13;7.75;;;20.40;69.70;;;;;;5056279;28;20061;-63
2022/07/25 01:53:13;;;;;;;9.38;7.72;;;20.40;70.00;;;;;;5054263;28;20090;-62
2022/07/25 01:55:39;;;;;;;8.43;7.55;;;20.30;70.00;;;;;;5056439;28;20561;-61
2022/07/25 01:58:04;;;;;;;8.90;8.02;;;20.40;70.20;;;;;;5055649;28;20423;-64
2022/07/25 02:00:30;;;;;;;9.60;7.60;;;20.30;70.40;;;;;;5057072;28;20118;-62
2022/07/25 02:05:40;;;;;;;8.88;7.97;;;20.30;70.60;;;;;;5056202;28;20082;-63
2022/07/25 02:08:05;;;;;;;8.95;8.02;;;20.30;70.70;;;;;;5056200;28;20408;-63
2022/07/25 02:10:31;;;;;;;8.90;7.53;;;20.20;70.70;;;;;;5057309;28;20028;-63
2022/07/25 02:12:57;;;;;;;8.45;7.65;;;20.20;70.80;;;;;;5055384;28;20561;-63
2022/07/25 02:15:22;;;;;;;10.95;8.05;;;20.20;70.90;;;;;;5056584;28;20055;-62
2022/07/25 02:17:48;;;;;;;11.65;8.52;;;20.20;71.10;;;;;;5053502;28;20032;-65
2022/07/25 02:20:14;;;;;;;9.15;8.30;;;20.10;71.30;;;;;;5057051;28;20086;-63
2022/07/25 02:22:39;;;;;;;11.20;8.30;;;20.10;71.30;;;;;;5054058;28;20098;-63
2022/07/25 02:25:05;;;;;;;10.20;8.68;;;20.10;71.40;;;;;;5054474;28;20033;-63
2022/07/25 02:27:31;;;;;;;9.73;8.18;;;20.00;71.40;;;;;;5057703;28;20139;-63
2022/07/25 02:29:57;;;;;;;10.05;8.60;;;20.00;71.60;;;;;;5058931;28;20034;-63
2022/07/25 02:32:22;;;;;;;9.95;7.88;;;20.00;71.80;;;;;;5058970;28;20041;-62
2022/07/25 02:34:48;;;;;;;8.85;8.05;;;20.00;71.90;;;;;;5054011;28;20036;-64
2022/07/25 02:37:13;;;;;;;10.38;7.85;;;19.90;71.90;;;;;;5055371;28;20524;-63
2022/07/25 02:39:39;;;;;;;9.63;7.97;;;19.90;72.00;;;;;;5053455;28;20518;-65
2022/07/25 02:42:05;;;;;;;9.07;8.18;;;19.90;72.00;;;;;;5054475;28;20341;-64
2022/07/25 02:44:30;;;;;;;9.18;8.27;;;19.90;72.10;;;;;;5053347;28;20538;-63
2022/07/25 02:46:56;;;;;;;9.90;8.52;;;19.90;72.10;;;;;;5056138;28;20047;-63
2022/07/25 02:49:21;;;;;;;10.02;8.77;;;20.00;72.20;;;;;;5053976;28;20029;-64
2022/07/25 02:51:47;;;;;;;10.20;8.60;;;20.00;72.00;;;;;;5056587;28;20037;-63
2022/07/25 02:54:13;;;;;;;9.52;8.38;;;19.90;72.00;;;;;;5054424;28;20173;-63
2022/07/25 02:56:38;;;;;;;11.70;8.57;;;19.90;72.00;;;;;;5055111;28;20033;-63
2022/07/25 02:59:04;;;;;;;11.13;8.55;;;19.90;72.10;;;;;;5054021;28;20039;-64
2022/07/25 03:01:30;;;;;;;10.13;8.65;;;19.90;72.20;;;;;;5057308;28;20498;-63
2022/07/25 03:03:55;;;;;;;9.70;8.50;;;19.90;72.20;;;;;;5053962;28;20032;-62
2022/07/25 03:06:21;;;;;;;8.93;8.07;;;19.90;72.20;;;;;;5053773;28;20036;-63
2022/07/25 03:08:46;;;;;;;9.95;8.95;;;19.80;72.10;;;;;;5054238;28;20087;-64
2022/07/25 03:11:13;;;;;;;10.20;8.48;;;19.80;72.20;;;;;;5053436;28;20024;-64
2022/07/25 03:13:38;;;;;;;9.75;8.75;;;19.80;72.50;;;;;;5054678;28;20041;-64
2022/07/25 03:16:04;;;;;;;9.88;8.88;;;19.70;72.50;;;;;;5056378;28;20526;-61
2022/07/25 03:18:30;;;;;;;10.20;8.48;;;19.70;72.70;;;;;;5055833;28;20504;-63
2022/07/25 03:20:56;;;;;;;12.48;9.27;;;19.70;72.80;;;;;;5058289;28;20033;-62
2022/07/25 03:23:23;;;;;;;10.02;9.02;;;19.70;73.00;;;;;;5057442;28;20025;-62
2022/07/25 03:25:49;;;;;;;10.85;9.38;;;19.60;73.00;;;;;;5054689;28;20064;-62
2022/07/25 03:28:14;;;;;;;9.45;8.43;;;19.60;73.90;;;;;;5057670;28;20068;-64
2022/07/25 03:30:40;;;;;;;9.70;8.80;;;19.60;73.10;;;;;;5056145;28;20507;-62
2022/07/25 03:33:06;;;;;;;10.45;8.88;;;19.60;73.20;;;;;;5057835;28;20033;-62
2022/07/25 03:35:31;;;;;;;9.35;8.35;;;19.60;73.20;;;;;;5055775;28;20438;-62
2022/07/25 03:37:57;;;;;;;9.10;8.18;;;19.60;73.30;;;;;;5057408;28;20090;-63
2022/07/25 03:40:22;;;;;;;9.13;8.23;;;19.60;73.30;;;;;;5056860;28;20036;-63
2022/07/25 03:42:48;;;;;;;9.82;8.63;;;19.50;73.20;;;;;;5056325;28;20036;-64
2022/07/25 03:45:14;;;;;;;10.18;8.45;;;19.60;73.00;;;;;;5057215;28;20052;-62
2022/07/25 03:47:39;;;;;;;9.32;8.27;;;19.50;73.20;;;;;;5056324;28;20044;-62
2022/07/25 03:50:05;;;;;;;9.30;8.30;;;19.50;73.10;;;;;;5057356;28;20495;-63
2022/07/25 03:52:31;;;;;;;9.20;8.30;;;19.60;73.30;;;;;;5055445;28;20530;-61
2022/07/25 03:54:56;;;;;;;9.35;8.32;;;19.50;73.30;;;;;;5058191;28;20203;-63
2022/07/25 03:57:22;;;;;;;9.35;8.52;;;19.50;73.50;;;;;;5055809;28;20179;-63
2022/07/25 03:59:48;;;;;;;10.50;8.52;;;19.50;73.50;;;;;;5056906;28;20044;-63
2022/07/25 04:02:13;;;;;;;9.93;8.93;;;19.50;73.60;;;;;;5056737;28;20419;-64
2022/07/25 04:04:39;;;;;;;9.40;8.50;;;19.50;73.60;;;;;;5057262;28;20222;-61
2022/07/25 04:07:04;;;;;;;9.70;8.68;;;19.40;73.50;;;;;;5056353;28;20033;-61
2022/07/25 04:09:30;;;;;;;9.50;8.50;;;19.40;73.70;;;;;;5055523;28;20025;-63
2022/07/25 04:11:55;;;;;;;10.25;8.55;;;19.40;73.90;;;;;;5052852;28;20463;-63
2022/07/25 04:14:21;;;;;;;13.57;8.63;;;19.30;74.00;;;;;;5056251;28;20033;-62
2022/07/25 04:16:47;;;;;;;9.13;8.25;;;19.30;74.00;;;;;;5053811;28;20587;-63
2022/07/25 04:19:12;;;;;;;13.55;9.73;;;19.40;74.30;;;;;;5051542;28;20554;-62
2022/07/25 04:21:38;;;;;;;12.52;9.20;;;19.30;74.20;;;;;;5052698;28;20037;-62
2022/07/25 04:24:04;;;;;;;12.05;9.05;;;19.30;74.30;;;;;;5050863;28;20066;-63
2022/07/25 04:26:30;;;;;;;10.13;9.13;;;19.40;74.40;;;;;;5050433;28;20051;-59
2022/07/25 04:28:57;;;;;;;9.38;8.32;;;19.40;74.50;;;;;;5048695;28;20127;-59
2022/07/25 04:31:24;;;;;;;9.65;8.60;;;19.30;74.40;;;;;;5045724;28;20037;-60
2022/07/25 04:33:50;;;;;;;9.88;8.88;;;19.30;74.50;;;;;;5051315;28;20434;-61
2022/07/25 04:36:15;;;;;;;12.48;9.27;;;19.30;74.60;;;;;;5054675;28;20033;-61
2022/07/25 04:38:41;;;;;;;12.60;9.45;;;19.30;74.40;;;;;;5053946;28;20041;-62
2022/07/25 04:41:06;;;;;;;15.68;9.43;;;19.30;74.80;;;;;;5056423;28;20412;-62
2022/07/25 04:43:32;;;;;;;10.88;9.18;;;19.30;74.90;;;;;;5057629;28;20425;-57
2022/07/25 04:45:58;;;;;;;10.73;9.60;;;19.30;75.00;;;;;;5054578;28;20127;-62
2022/07/25 04:48:24;;;;;;;11.25;8.55;;;19.30;75.30;;;;;;5056528;28;20424;-60
2022/07/25 04:50:49;;;;;;;10.48;9.02;;;19.30;75.40;;;;;;5054647;28;20037;-60
2022/07/25 04:53:15;;;;;;;10.43;9.38;;;19.30;75.60;;;;;;5057252;28;20573;-61
2022/07/25 04:55:40;;;;;;;11.30;9.13;;;19.30;75.60;;;;;;5058446;28;20515;-59
2022/07/25 04:58:06;;;;;;;11.68;9.30;;;19.40;75.60;;;;;;5056045;28;20043;-63
2022/07/25 05:00:32;;;;;;;12.10;9.27;;;19.30;75.60;;;;;;5053642;28;20029;-62
2022/07/25 05:02:57;;;;;;;10.55;9.45;;;19.40;75.80;;;;;;5056155;28;20499;-58
2022/07/25 05:05:23;;;;;;;10.77;9.68;;;19.40;75.70;;;;;;5058298;28;20480;-59
2022/07/25 05:07:54;;;;;;;14.50;10.02;;;19.40;75.80;;;;;;5061043;28;20136;-58
2022/07/25 05:10:19;;;;;;;13.45;9.93;;;19.50;75.70;;;;;;5060661;28;20055;-59
2022/07/25 05:12:45;;;;;;;10.60;9.50;;;19.50;75.60;;;;;;5058459;28;20065;-62
2022/07/25 05:15:11;;;;;;;11.00;9.90;;;19.50;75.60;;;;;;5059287;28;20032;-61
2022/07/25 05:17:36;;;;;;;12.32;9.82;;;19.50;75.60;;;;;;5059510;28;20064;-63
2022/07/25 05:20:02;;;;;;;12.02;9.80;;;19.60;76.00;;;;;;5060958;28;20040;-60
2022/07/25 05:22:28;;;;;;;11.80;10.18;;;19.60;76.00;;;;;;5060307;28;20062;-59
2022/07/25 05:24:54;;;;;;;11.10;9.55;;;19.70;76.10;;;;;;5059397;28;20090;-59
2022/07/25 05:27:19;;;;;;;14.45;10.18;;;19.70;76.10;;;;;;5060062;28;20125;-63
2022/07/25 05:29:45;;;;;;;13.38;10.48;;;19.80;76.00;;;;;;5055883;28;20064;-56
2022/07/25 05:32:10;;;;;;;12.10;10.48;;;19.90;76.10;;;;;;5057337;28;20120;-59
2022/07/25 05:34:36;;;;;;;12.27;10.13;;;19.90;76.20;;;;;;5055075;28;20032;-61
2022/07/25 05:37:02;;;;;;;11.43;10.23;;;20.00;76.10;;;;;;5059852;28;20037;-60
2022/07/25 05:39:27;;;;;;;14.00;10.93;;;20.10;76.10;;;;;;5060032;28;20571;-58
2022/07/25 05:41:53;;;;;;;12.00;10.75;;;20.20;76.30;;;;;;5059599;28;20500;-58
2022/07/25 05:44:19;;;;;;;11.68;10.48;;;20.20;76.30;;;;;;5057375;28;20040;-61
2022/07/25 05:46:44;;;;;;;15.70;10.48;;;20.40;76.50;;;;;;5056419;28;20032;-62
2022/07/25 05:49:10;;;;;;;11.50;10.30;;;20.40;76.40;;;;;;5061402;28;20040;-64
2022/07/25 05:51:36;;;;;;;13.65;10.63;;;20.60;76.10;;;;;;5059287;28;20050;-59
2022/07/25 05:54:01;;;;;;;12.73;10.30;;;20.70;75.70;;;;;;5058979;28;20041;-60
2022/07/25 05:56:28;;;;;;;12.32;10.90;;;20.80;75.40;;;;;;5058629;28;20562;-61
2022/07/25 05:58:54;;;;;;;12.25;9.98;;;20.90;75.30;;;;;;5058236;28;20230;-58
2022/07/25 06:01:20;;;;;;;12.82;10.20;;;21.00;75.00;;;;;;5059498;28;20288;-60
2022/07/25 06:03:45;;;;;;;14.38;10.57;;;21.10;74.70;;;;;;5059548;28;20461;-61
2022/07/25 06:06:11;;;;;;;13.50;10.95;;;21.20;74.50;;;;;;5058336;28;20041;-60
2022/07/25 06:08:38;;;;;;;10.88;9.75;;;21.30;74.00;;;;;;5056941;28;20061;-63
2022/07/25 06:11:04;;;;;;;13.77;10.57;;;21.40;73.80;;;;;;5056970;28;20436;-60
2022/07/25 06:13:31;;;;;;;12.52;10.52;;;21.50;74.20;;;;;;5060058;28;20036;-61
2022/07/25 06:15:57;;;;;;;16.00;10.77;;;21.60;74.60;;;;;;5057762;28;20108;-61
2022/07/25 06:18:23;;;;;;;11.20;10.00;;;21.70;73.70;;;;;;5063255;28;20044;-62
2022/07/25 06:20:49;;;;;;;11.13;9.93;;;21.80;73.20;;;;;;5056756;28;20037;-58
2022/07/25 06:23:15;;;;;;;11.95;9.52;;;21.90;73.20;;;;;;5059359;28;20036;-63
2022/07/25 06:25:41;;;;;;;11.35;10.13;;;22.00;73.90;;;;;;5059123;28;20097;-63
2022/07/25 06:28:07;;;;;;;11.10;9.82;;;22.10;72.60;;;;;;5057201;28;20045;-60
2022/07/25 06:30:33;;;;;;;10.90;9.80;;;22.20;72.60;;;;;;5058263;28;20127;-63
2022/07/25 06:32:59;;;;;;;10.70;9.45;;;22.30;72.60;;;;;;5057634;28;20127;-60
2022/07/25 06:35:24;;;;;;;14.90;9.15;;;22.40;72.70;;;;;;5055211;28;20112;-62
2022/07/25 06:37:50;;;;;;;11.55;9.50;;;22.50;72.80;;;;;;5058119;28;20063;-60
2022/07/25 06:40:16;;;;;;;14.80;9.77;;;22.60;72.50;;;;;;5058831;28;20553;-62
2022/07/25 06:42:43;;;;;;;11.05;9.30;;;22.70;72.80;;;;;;5056878;28;20047;-59
2022/07/25 06:45:09;;;;;;;10.75;9.55;;;22.80;72.30;;;;;;5057625;28;20459;-61
2022/07/25 06:47:36;;;;;;;11.07;9.23;;;22.90;72.20;;;;;;5058976;28;20127;-62
2022/07/25 06:50:03;;;;;;;13.20;10.60;;;23.00;71.80;;;;;;5057740;28;20124;-64
2022/07/25 06:52:28;;;;;;;12.48;9.93;;;23.10;71.40;;;;;;5057611;28;20048;-62
2022/07/25 06:54:54;;;;;;;10.43;9.30;;;23.20;71.30;;;;;;5060470;28;20029;-62
2022/07/25 06:57:20;;;;;;;11.80;10.00;;;23.30;71.30;;;;;;5058996;28;20049;-63
2022/07/25 06:59:45;;;;;;;12.52;9.98;;;23.40;72.00;;;;;;5057608;28;21438;-60
2022/07/25 07:02:14;;;;;;;11.43;10.13;;;23.50;71.40;;;;;;5058637;28;20033;-61
2022/07/25 07:04:40;;;;;;;13.27;9.57;;;23.60;71.40;;;;;;5055600;28;20037;-60
2022/07/25 07:07:05;;;;;;;13.80;10.30;;;23.70;72.00;;;;;;5056348;28;20571;-62
2022/07/25 07:09:31;;;;;;;12.07;9.95;;;23.80;71.80;;;;;;5053957;28;20041;-60
2022/07/25 07:11:56;;;;;;;12.05;9.93;;;23.90;71.70;;;;;;5055423;28;20040;-62
2022/07/25 07:14:22;;;;;;;11.55;9.52;;;24.00;71.40;;;;;;5057833;28;20033;-61
2022/07/25 07:16:48;;;;;;;11.00;9.77;;;24.10;71.30;;;;;;5057133;28;20123;-60
2022/07/25 07:19:13;;;;;;;14.88;10.35;;;24.30;71.30;;;;;;5057596;28;20099;-60
2022/07/25 07:21:40;;;;;;;10.73;9.70;;;24.40;71.10;;;;;;5056607;28;20033;-63
2022/07/25 07:24:06;;;;;;;14.07;9.80;;;24.50;70.90;;;;;;5056677;28;20029;-61
2022/07/25 07:26:32;;;;;;;12.20;9.52;;;24.70;70.50;;;;;;5055098;28;20033;-60
2022/07/25 07:28:58;;;;;;;11.57;9.30;;;24.80;70.30;;;;;;5056943;28;20040;-62
2022/07/25 07:31:23;;;;;;;15.02;9.02;;;24.90;70.00;;;;;;5057692;28;20025;-61
2022/07/25 07:33:49;;;;;;;13.13;8.77;;;25.00;69.40;;;;;;5054030;28;20132;-62
2022/07/25 07:36:15;;;;;;;9.60;8.70;;;25.20;69.10;;;;;;5055296;28;20040;-62
2022/07/25 07:38:41;;;;;;;10.55;9.52;;;25.30;68.00;;;;;;5058290;28;20185;-62
2022/07/25 07:41:07;;;;;;;10.18;8.43;;;25.50;67.80;;;;;;5059006;28;20036;-59
2022/07/25 07:43:32;;;;;;;9.10;8.30;;;25.60;67.50;;;;;;5057291;28;20036;-63
2022/07/25 07:46:01;;;;;;;10.73;8.13;;;25.70;67.10;;;;;;5058944;28;20032;-61
2022/07/25 07:48:27;;;;;;;8.63;7.80;;;25.90;67.20;;;;;;5054397;28;20064;-61
2022/07/25 07:50:53;;;;;;;9.00;8.13;;;26.00;66.70;;;;;;5057996;28;20037;-63
2022/07/25 07:53:19;;;;;;;8.85;8.05;;;26.20;66.20;;;;;;5057467;28;20240;-63
2022/07/25 07:55:45;;;;;;;10.07;8.25;;;26.30;66.00;;;;;;5056515;28;20044;-60
2022/07/25 07:58:16;;;;;;;13.75;8.32;;;26.40;65.50;;;;;;5058231;28;20040;-61
2022/07/25 08:00:43;;;;;;;8.85;7.90;;;26.60;65.00;;;;;;5055692;28;20048;-62
2022/07/25 08:03:09;;;;;;;9.00;8.10;;;26.70;64.70;;;;;;5053727;28;20091;-61
2022/07/25 08:05:37;;;;;;;9.20;8.35;;;26.80;64.80;;;;;;5056813;28;20543;-61
2022/07/25 08:08:05;;;;;;;9.23;7.88;;;27.00;63.70;;;;;;5057624;28;20437;-60
2022/07/25 08:10:35;;;;;;;9.02;8.10;;;27.10;63.60;;;;;;5055286;28;20115;-60
2022/07/25 08:13:02;;;;;;;8.77;7.88;;;27.20;63.20;;;;;;5059657;28;20043;-58
2022/07/25 08:15:27;;;;;;;8.43;7.70;;;27.40;62.90;;;;;;5056223;28;20163;-58
2022/07/25 08:17:53;;;;;;;9.15;8.07;;;27.50;62.10;;;;;;5054685;28;20066;-61
2022/07/25 08:20:21;;;;;;;8.10;7.43;;;27.60;62.00;;;;;;5055687;28;20117;-62
2022/07/25 08:22:48;;;;;;;8.30;7.60;;;27.80;62.00;;;;;;5055749;28;20044;-60
2022/07/25 08:25:17;;;;;;;8.82;7.93;;;27.90;61.60;;;;;;5058442;28;20144;-58
2022/07/25 08:27:43;;;;;;;8.40;7.70;;;28.10;60.50;;;;;;5057610;28;20100;-60
2022/07/25 08:30:11;;;;;;;7.88;7.18;;;28.20;60.70;;;;;;5053489;28;20036;-59
2022/07/25 08:32:52;;;;;;;9.35;7.82;;;28.30;60.70;;;;;;5055417;28;20031;-60
2022/07/25 08:35:19;;;;;;;8.23;7.38;;;28.50;59.00;;;;;;5056716;28;20029;-62
2022/07/25 08:37:46;;;;;;;8.10;7.40;;;28.70;59.40;;;;;;5055060;28;20102;-58
2022/07/25 08:40:13;;;;;;;8.43;7.63;;;28.70;59.00;;;;;;5060291;28;20041;-62
2022/07/25 08:42:39;;;;;;;7.68;7.07;;;28.80;59.20;;;;;;5060585;28;20065;-64
2022/07/25 08:45:07;;;;;;;8.20;7.50;;;29.00;58.70;;;;;;5061412;28;20033;-63
2022/07/25 08:47:34;;;;;;;7.57;6.95;;;29.10;57.60;;;;;;5061061;28;20520;-65
2022/07/25 08:50:03;;;;;;;7.15;6.53;;;29.20;58.10;;;;;;5062161;28;20156;-62
2022/07/25 08:52:30;;;;;;;8.63;6.95;;;29.40;56.90;;;;;;5061983;28;20530;-64
2022/07/25 08:54:57;;;;;;;8.23;7.53;;;29.50;56.70;;;;;;5062643;28;20044;-62
2022/07/25 08:57:22;;;;;;;7.80;7.10;;;29.60;56.20;;;;;;5062257;28;20040;-65
2022/07/25 08:59:48;;;;;;;7.95;7.25;;;29.70;55.80;;;;;;5062021;28;20471;-63
2022/07/25 09:02:14;;;;;;;7.28;6.68;;;29.80;55.90;;;;;;5061058;28;20029;-63
2022/07/25 09:04:40;;;;;;;9.80;7.40;;;30.00;55.60;;;;;;5060924;28;20049;-63
2022/07/25 09:07:06;;;;;;;7.40;6.80;;;30.10;55.70;;;;;;5061511;28;20097;-63
2022/07/25 09:09:37;;;;;;;7.53;6.85;;;30.20;55.30;;;;;;5061302;28;20487;-65
2022/07/25 09:12:04;;;;;;;6.82;6.32;;;30.40;54.70;;;;;;5060184;28;20102;-63
2022/07/25 09:14:30;;;;;;;6.20;5.70;;;30.50;54.60;;;;;;5058831;28;20028;-63
2022/07/25 09:16:56;;;;;;;6.70;6.10;;;30.60;52.30;;;;;;5062740;28;20518;-65
2022/07/25 09:19:24;;;;;;;6.68;6.07;;;30.70;52.40;;;;;;5060603;28;20112;-64
2022/07/25 09:21:59;;;;;;;9.73;6.43;;;30.80;52.40;;;;;;5063651;28;20041;-62
2022/07/25 09:24:24;;;;;;;;;;;30.90;51.60;;;;;;5061820;28;20468;-64
2022/07/25 09:26:52;;;;;;;5.65;5.25;;;31.10;53.40;;;;;;5058271;28;20015;-63
2022/07/25 09:29:19;;;;;;;6.18;5.50;;;31.20;52.80;;;;;;5058082;28;20040;-65
2022/07/25 09:31:44;;;;;;;10.35;4.70;;;31.30;50.50;;;;;;5058320;28;20111;-65
2022/07/25 09:34:11;;;;;;;6.15;5.40;;;31.40;49.80;;;;;;5059992;28;20488;-67
2022/07/25 09:36:50;;;;;;;6.82;5.78;;;31.50;50.10;;;;;;5058500;28;20029;-65
2022/07/25 09:39:15;;;;;;;6.88;6.18;;;31.60;50.20;;;;;;5059253;28;20272;-64
2022/07/25 09:41:41;;;;;;;6.53;5.93;;;31.70;50.30;;;;;;5060113;28;20040;-66
2022/07/25 09:44:18;;;;;;;6.65;6.03;;;31.80;50.40;;;;;;5056027;28;20037;-64
2022/07/25 09:46:44;;;;;;;7.00;6.28;;;32.00;48.90;;;;;;5056109;28;20427;-66
2022/07/25 09:49:13;;;;;;;7.15;6.55;;;32.00;49.90;;;;;;5058458;28;20072;-63
2022/07/25 09:51:39;;;;;;;6.82;6.20;;;32.10;50.10;;;;;;5056756;28;20040;-64
2022/07/25 09:54:05;;;;;;;6.50;5.80;;;32.20;49.90;;;;;;5058907;28;20116;-65
2022/07/25 09:56:31;;;;;;;9.00;6.75;;;32.30;49.60;;;;;;5055818;28;20111;-65
2022/07/25 09:58:57;;;;;;;6.50;6.00;;;32.40;48.80;;;;;;5057672;28;20056;-64
2022/07/25 10:01:32;;;;;;;6.60;6.10;;;32.50;48.90;;;;;;5057018;28;20066;-61
2022/07/25 10:04:08;;;;;;;;;;;32.50;48.50;;;;;;5053806;28;20040;-65
2022/07/25 10:06:49;;;;;;;7.13;6.53;;;32.60;49.50;;;;;;5060441;28;19954;-63
2022/07/25 10:09:15;;;;;;;6.32;5.82;;;32.70;49.20;;;;;;5057313;28;20051;-67
2022/07/25 10:12:07;;;;;;;6.20;5.60;;;32.80;48.80;;;;;;5055528;28;20124;-66
2022/07/25 10:14:34;;;;;;;5.68;5.15;;;32.90;45.10;;;;;;5056180;28;20078;-63
2022/07/25 10:17:00;;;;;;;5.75;5.25;;;32.90;46.50;;;;;;5059493;28;20114;-63
2022/07/25 10:19:55;;;;;;;6.97;5.28;;;33.00;46.00;;;;;;5059587;28;20088;-63
2022/07/25 10:22:21;;;;;;;5.80;5.25;;;33.10;45.00;;;;;;5042742;28;20051;-65
2022/07/25 10:24:47;;;;;;;6.07;5.47;;;33.10;46.20;;;;;;5058195;28;20511;-65
2022/07/25 10:27:21;;;;;;;5.30;4.90;;;33.20;45.50;;;;;;5059152;28;20078;-66
2022/07/25 10:29:52;;;;;;;5.07;4.68;;;33.30;45.30;;;;;;5053916;28;20033;-64
2022/07/25 10:32:17;;;;;;;5.38;4.93;;;33.40;44.10;;;;;;5056444;28;20040;-66
2022/07/25 10:34:52;;;;;;;4.80;4.40;;;33.40;43.80;;;;;;5055595;28;20028;-63
2022/07/25 10:37:24;;;;;;;5.35;4.90;;;33.50;42.40;;;;;;5054706;28;20477;-65
2022/07/25 10:39:50;;;;;;;5.85;5.30;;;33.50;43.10;;;;;;5048489;28;20040;-65
2022/07/25 10:42:20;;;;;;;7.30;5.57;;;33.60;43.30;;;;;;5058715;28;20055;-63
2022/07/25 10:44:58;;;;;;;6.38;5.50;;;33.60;41.90;;;;;;5055877;28;20112;-65
2022/07/25 10:47:26;;;;;;;6.90;5.35;;;33.60;42.10;;;;;;5058134;28;20063;-64
2022/07/25 10:49:57;;;;;;;5.85;5.10;;;33.60;42.10;;;;;;5057273;28;20115;-64
2022/07/25 10:52:27;;;;;;;5.65;5.15;;;33.60;42.00;;;;;;5055597;28;20040;-65
2022/07/25 10:54:55;;;;;;;5.53;5.13;;;33.70;42.20;;;;;;5054654;28;20099;-66
2022/07/25 10:57:21;;;;;;;5.88;5.38;;;33.70;41.80;;;;;;5057925;28;20448;-65
2022/07/25 10:59:47;;;;;;;9.93;4.95;;;33.70;41.50;;;;;;5057058;28;20122;-64
2022/07/25 11:02:15;;;;;;;8.35;4.82;;;33.80;41.60;;;;;;5057554;28;20091;-65
2022/07/25 11:04:45;;;;;;;5.05;4.65;;;33.80;41.20;;;;;;5055931;28;20072;-63
2022/07/25 11:07:18;;;;;;;6.13;5.53;;;33.80;41.50;;;;;;5055850;28;20028;-64
2022/07/25 11:09:54;;;;;;;5.78;5.15;;;33.80;40.60;;;;;;5054288;28;21154;-64
2022/07/25 11:12:20;;;;;;;6.25;5.10;;;33.90;40.80;;;;;;5056566;28;20728;-65
2022/07/25 11:14:46;;;;;;;5.53;5.13;;;33.90;40.90;;;;;;5056266;28;20033;-63
2022/07/25 11:17:17;;;;;;;6.47;5.07;;;33.90;41.50;;;;;;5056817;28;22193;-63
2022/07/25 11:19:51;;;;;;;6.88;4.82;;;34.00;40.80;;;;;;5055641;28;20037;-65
2022/07/25 11:22:17;;;;;;;5.80;5.30;;;33.90;40.50;;;;;;5057970;28;20032;-64
2022/07/25 11:24:45;;;;;;;5.15;4.75;;;34.00;40.50;;;;;;5055923;28;20089;-65
2022/07/25 11:27:25;;;;;;;5.40;5.00;;;34.00;40.00;;;;;;5057059;28;20098;-63
2022/07/25 11:29:51;;;;;;;5.00;4.60;;;34.10;39.70;;;;;;5057004;28;20036;-65
2022/07/25 11:32:17;;;;;;;5.30;4.85;;;34.10;39.70;;;;;;5055312;28;20028;-61
2022/07/25 11:34:46;;;;;;;5.30;4.90;;;34.00;39.50;;;;;;5055846;28;20037;-63
2022/07/25 11:37:12;;;;;;;5.60;5.10;;;34.10;39.30;;;;;;5055347;28;20480;-63
2022/07/25 11:39:41;;;;;;;5.45;4.85;;;34.10;39.30;;;;;;5055335;28;20636;-66
2022/07/25 11:42:12;;;;;;;5.70;5.20;;;34.10;39.80;;;;;;5057875;28;20452;-64
2022/07/25 11:44:38;;;;;;;4.75;4.35;;;34.10;39.70;;;;;;5056005;28;20120;-67
2022/07/25 11:47:06;;;;;;;6.55;4.97;;;34.20;39.60;;;;;;5055491;28;20096;-64
2022/07/25 11:49:43;;;;;;;6.15;4.53;;;34.20;39.30;;;;;;5055395;28;20037;-64
2022/07/25 11:52:23;;;;;;;5.45;4.95;;;34.30;38.20;;;;;;5054416;28;20083;-62
2022/07/25 11:55:00;;;;;;;11.07;5.18;;;34.40;38.30;;;;;;5052587;28;20039;-67
2022/07/25 11:57:32;;;;;;;6.40;5.20;;;34.40;38.60;;;;;;5055969;28;20025;-65
2022/07/25 11:59:59;;;;;;;5.40;4.90;;;34.40;38.40;;;;;;5055170;28;20162;-64
2022/07/25 12:02:32;;;;;;;5.95;5.13;;;34.50;39.20;;;;;;5053135;28;20048;-64
2022/07/25 12:05:04;;;;;;;5.45;4.97;;;34.50;38.90;;;;;;5054477;28;20036;-66
2022/07/25 12:07:49;;;;;;;6.65;5.50;;;34.50;38.30;;;;;;5055495;28;20071;-63
2022/07/25 12:10:20;;;;;;;5.25;4.85;;;34.60;37.90;;;;;;5053399;28;20120;-64
2022/07/25 12:12:54;;;;;;;8.55;5.10;;;34.60;39.00;;;;;;5050998;28;20104;-66
2022/07/25 12:15:26;;;;;;;6.97;5.10;;;34.60;39.20;;;;;;5054093;28;20565;-64
2022/07/25 12:17:53;;;;;;;5.95;5.00;;;34.70;38.60;;;;;;5054121;28;20360;-64
2022/07/25 12:20:20;;;;;;;7.03;5.20;;;34.70;38.40;;;;;;5051809;28;20394;-66
2022/07/25 12:22:47;;;;;;;9.77;5.38;;;34.70;38.40;;;;;;5053708;28;20037;-64
2022/07/25 12:25:13;;;;;;;9.02;5.35;;;34.80;38.40;;;;;;5055710;28;20036;-64
2022/07/25 12:27:39;;;;;;;5.97;4.72;;;34.80;38.40;;;;;;5054921;28;20049;-64
2022/07/25 12:30:06;;;;;;;5.50;4.93;;;34.80;38.50;;;;;;5049598;28;20044;-65
2022/07/25 12:32:32;;;;;;;6.03;5.10;;;34.90;38.80;;;;;;5046322;28;20040;-65
2022/07/25 12:34:58;;;;;;;5.65;5.25;;;35.00;38.30;;;;;;5051970;28;20276;-64
2022/07/25 12:37:25;;;;;;;5.53;5.03;;;35.00;37.70;;;;;;5054815;28;20060;-65
2022/07/25 12:39:51;;;;;;;5.60;5.10;;;35.10;38.10;;;;;;5051260;28;20044;-64
2022/07/25 12:42:17;;;;;;;5.38;4.97;;;35.10;37.20;;;;;;5055310;28;20028;-69
2022/07/25 12:44:43;;;;;;;8.98;4.97;;;35.10;37.60;;;;;;5052222;28;20079;-63